sensor_id;sensor_type;location;lat;lon;timestamp;temperature;humidity
74792;SHT30;63319;46.046;17.802;2023-03-14T00:00:48;21.47;40.68
74792;SHT30;63319;46.046;17.802;2023-03-14T00:03:51;21.46;41.00
74792;SHT30;63319;46.046;17.802;2023-03-14T00:06:54;21.46;41.08
74792;SHT30;63319;46.046;17.802;2023-03-14T00:09:57;21.47;40.57
74792;SHT30;63319;46.046;17.802;2023-03-14T00:13:05;21.43;40.72
74792;SHT30;63319;46.046;17.802;2023-03-14T00:16:11;21.44;40.98
74792;SHT30;63319;46.046;17.802;2023-03-14T00:19:19;21.44;40.49
74792;SHT30;63319;46.046;17.802;2023-03-14T00:22:26;21.42;41.06
74792;SHT30;63319;46.046;17.802;2023-03-14T00:25:33;21.42;40.74
74792;SHT30;63319;46.046;17.802;2023-03-14T00:28:44;21.42;41.08
74792;SHT30;63319;46.046;17.802;2023-03-14T00:31:50;21.40;40.99
74792;SHT30;63319;46.046;17.802;2023-03-14T00:34:53;21.43;40.99
74792;SHT30;63319;46.046;17.802;2023-03-14T00:37:56;21.43;40.96
74792;SHT30;63319;46.046;17.802;2023-03-14T00:41:03;21.40;41.10
74792;SHT30;63319;46.046;17.802;2023-03-14T00:44:09;21.40;41.06
74792;SHT30;63319;46.046;17.802;2023-03-14T00:47:11;21.43;40.80
74792;SHT30;63319;46.046;17.802;2023-03-14T00:50:15;21.42;40.52
74792;SHT30;63319;46.046;17.802;2023-03-14T00:53:20;21.40;40.86
74792;SHT30;63319;46.046;17.802;2023-03-14T00:56:23;21.40;40.80
74792;SHT30;63319;46.046;17.802;2023-03-14T00:59:29;21.40;40.64
74792;SHT30;63319;46.046;17.802;2023-03-14T01:02:36;21.39;40.94
74792;SHT30;63319;46.046;17.802;2023-03-14T01:05:40;21.40;40.85
74792;SHT30;63319;46.046;17.802;2023-03-14T01:08:44;21.37;40.84
74792;SHT30;63319;46.046;17.802;2023-03-14T01:11:47;21.37;40.95
74792;SHT30;63319;46.046;17.802;2023-03-14T01:14:53;21.37;40.51
74792;SHT30;63319;46.046;17.802;2023-03-14T01:17:56;21.37;40.55
74792;SHT30;63319;46.046;17.802;2023-03-14T01:21:00;21.36;40.58
74792;SHT30;63319;46.046;17.802;2023-03-14T01:24:05;21.36;40.85
74792;SHT30;63319;46.046;17.802;2023-03-14T01:27:08;21.35;40.45
74792;SHT30;63319;46.046;17.802;2023-03-14T01:30:12;21.36;40.55
74792;SHT30;63319;46.046;17.802;2023-03-14T01:33:20;21.32;40.56
74792;SHT30;63319;46.046;17.802;2023-03-14T01:36:23;21.37;40.68
74792;SHT30;63319;46.046;17.802;2023-03-14T01:39:27;21.35;40.63
74792;SHT30;63319;46.046;17.802;2023-03-14T01:42:31;21.33;40.82
74792;SHT30;63319;46.046;17.802;2023-03-14T01:49:26;21.30;40.70
74792;SHT30;63319;46.046;17.802;2023-03-14T01:52:39;21.30;40.49
74792;SHT30;63319;46.046;17.802;2023-03-14T01:55:45;21.29;40.82
74792;SHT30;63319;46.046;17.802;2023-03-14T01:58:50;21.26;40.43
74792;SHT30;63319;46.046;17.802;2023-03-14T02:01:54;21.27;40.91
74792;SHT30;63319;46.046;17.802;2023-03-14T02:05:05;21.26;40.85
74792;SHT30;63319;46.046;17.802;2023-03-14T02:08:14;21.26;40.18
74792;SHT30;63319;46.046;17.802;2023-03-14T02:11:33;21.25;40.98
74792;SHT30;63319;46.046;17.802;2023-03-14T02:14:49;21.23;40.22
74792;SHT30;63319;46.046;17.802;2023-03-14T02:18:14;21.23;40.88
74792;SHT30;63319;46.046;17.802;2023-03-14T02:22:13;21.23;40.92
74792;SHT30;63319;46.046;17.802;2023-03-14T02:25:46;21.22;40.95
74792;SHT30;63319;46.046;17.802;2023-03-14T02:28:51;21.23;40.52
74792;SHT30;63319;46.046;17.802;2023-03-14T02:31:55;21.20;40.62
74792;SHT30;63319;46.046;17.802;2023-03-14T02:35:00;21.22;40.85
74792;SHT30;63319;46.046;17.802;2023-03-14T02:38:08;21.20;40.72
74792;SHT30;63319;46.046;17.802;2023-03-14T02:41:22;21.25;40.82
74792;SHT30;63319;46.046;17.802;2023-03-14T02:44:34;21.22;40.75
74792;SHT30;63319;46.046;17.802;2023-03-14T02:47:43;21.22;40.72
74792;SHT30;63319;46.046;17.802;2023-03-14T02:50:48;21.18;40.69
74792;SHT30;63319;46.046;17.802;2023-03-14T02:53:54;21.18;40.66
74792;SHT30;63319;46.046;17.802;2023-03-14T02:56:59;21.16;40.70
74792;SHT30;63319;46.046;17.802;2023-03-14T03:00:03;21.18;40.90
74792;SHT30;63319;46.046;17.802;2023-03-14T03:03:13;21.18;40.87
74792;SHT30;63319;46.046;17.802;2023-03-14T03:06:16;21.18;40.53
74792;SHT30;63319;46.046;17.802;2023-03-14T03:09:19;21.18;40.37
74792;SHT30;63319;46.046;17.802;2023-03-14T03:12:22;21.18;40.89
74792;SHT30;63319;46.046;17.802;2023-03-14T03:15:26;21.18;40.53
74792;SHT30;63319;46.046;17.802;2023-03-14T03:18:29;21.18;40.57
74792;SHT30;63319;46.046;17.802;2023-03-14T03:21:34;21.15;40.73
74792;SHT30;63319;46.046;17.802;2023-03-14T03:24:37;21.12;40.95
74792;SHT30;63319;46.046;17.802;2023-03-14T03:27:40;21.13;40.87
74792;SHT30;63319;46.046;17.802;2023-03-14T03:30:45;21.12;40.91
74792;SHT30;63319;46.046;17.802;2023-03-14T03:33:48;21.10;40.58
74792;SHT30;63319;46.046;17.802;2023-03-14T03:36:51;21.12;40.85
74792;SHT30;63319;46.046;17.802;2023-03-14T03:39:54;21.12;40.57
74792;SHT30;63319;46.046;17.802;2023-03-14T03:42:57;21.08;40.09
74792;SHT30;63319;46.046;17.802;2023-03-14T03:46:03;21.09;40.82
74792;SHT30;63319;46.046;17.802;2023-03-14T03:49:08;21.09;40.65
74792;SHT30;63319;46.046;17.802;2023-03-14T03:52:11;21.09;40.73
74792;SHT30;63319;46.046;17.802;2023-03-14T03:55:14;21.08;40.55
74792;SHT30;63319;46.046;17.802;2023-03-14T03:58:17;21.09;40.66
74792;SHT30;63319;46.046;17.802;2023-03-14T04:01:22;21.09;40.88
74792;SHT30;63319;46.046;17.802;2023-03-14T04:04:27;21.08;41.04
74792;SHT30;63319;46.046;17.802;2023-03-14T04:07:34;21.10;41.08
74792;SHT30;63319;46.046;17.802;2023-03-14T04:10:41;21.08;40.98
74792;SHT30;63319;46.046;17.802;2023-03-14T04:13:58;21.08;41.18
74792;SHT30;63319;46.046;17.802;2023-03-14T04:17:01;21.09;41.09
74792;SHT30;63319;46.046;17.802;2023-03-14T04:20:06;21.06;40.96
74792;SHT30;63319;46.046;17.802;2023-03-14T04:23:14;21.05;41.00
74792;SHT30;63319;46.046;17.802;2023-03-14T04:26:17;21.06;41.25
74792;SHT30;63319;46.046;17.802;2023-03-14T04:29:21;21.08;40.62
74792;SHT30;63319;46.046;17.802;2023-03-14T04:32:24;21.08;40.17
74792;SHT30;63319;46.046;17.802;2023-03-14T04:35:27;21.05;40.17
74792;SHT30;63319;46.046;17.802;2023-03-14T04:38:35;21.03;40.87
74792;SHT30;63319;46.046;17.802;2023-03-14T04:41:38;21.05;41.25
74792;SHT30;63319;46.046;17.802;2023-03-14T04:44:43;21.06;41.20
74792;SHT30;63319;46.046;17.802;2023-03-14T04:47:47;21.05;41.09
74792;SHT30;63319;46.046;17.802;2023-03-14T04:50:55;21.05;41.31
74792;SHT30;63319;46.046;17.802;2023-03-14T04:54:00;21.05;41.02
74792;SHT30;63319;46.046;17.802;2023-03-14T04:57:04;21.05;41.19
74792;SHT30;63319;46.046;17.802;2023-03-14T05:00:10;21.06;40.93
74792;SHT30;63319;46.046;17.802;2023-03-14T05:03:23;21.06;41.33
74792;SHT30;63319;46.046;17.802;2023-03-14T05:06:48;21.08;41.22
74792;SHT30;63319;46.046;17.802;2023-03-14T05:10:10;21.05;40.86
74792;SHT30;63319;46.046;17.802;2023-03-14T05:13:31;21.03;41.55
74792;SHT30;63319;46.046;17.802;2023-03-14T05:16:53;21.03;40.95
74792;SHT30;63319;46.046;17.802;2023-03-14T05:20:15;21.00;40.28
74792;SHT30;63319;46.046;17.802;2023-03-14T05:23:52;21.03;41.23
74792;SHT30;63319;46.046;17.802;2023-03-14T05:27:11;21.02;40.86
74792;SHT30;63319;46.046;17.802;2023-03-14T05:30:21;21.03;41.27
74792;SHT30;63319;46.046;17.802;2023-03-14T05:33:38;21.03;41.39
74792;SHT30;63319;46.046;17.802;2023-03-14T05:37:11;21.06;41.19
74792;SHT30;63319;46.046;17.802;2023-03-14T05:40:36;21.06;41.22
74792;SHT30;63319;46.046;17.802;2023-03-14T05:43:48;21.08;40.96
74792;SHT30;63319;46.046;17.802;2023-03-14T05:47:10;21.08;40.72
74792;SHT30;63319;46.046;17.802;2023-03-14T05:50:33;21.08;41.11
74792;SHT30;63319;46.046;17.802;2023-03-14T05:53:55;21.09;41.35
74792;SHT30;63319;46.046;17.802;2023-03-14T05:57:48;21.15;40.67
74792;SHT30;63319;46.046;17.802;2023-03-14T06:01:03;21.15;41.07
74792;SHT30;63319;46.046;17.802;2023-03-14T06:04:19;21.19;40.82
74792;SHT30;63319;46.046;17.802;2023-03-14T06:07:26;21.22;41.14
74792;SHT30;63319;46.046;17.802;2023-03-14T06:10:29;21.22;40.71
74792;SHT30;63319;46.046;17.802;2023-03-14T06:13:32;21.25;40.47
74792;SHT30;63319;46.046;17.802;2023-03-14T06:16:35;21.27;40.60
74792;SHT30;63319;46.046;17.802;2023-03-14T06:19:43;21.35;40.46
74792;SHT30;63319;46.046;17.802;2023-03-14T06:22:51;21.37;40.62
74792;SHT30;63319;46.046;17.802;2023-03-14T06:25:55;21.46;40.47
74792;SHT30;63319;46.046;17.802;2023-03-14T06:29:00;21.51;39.71
74792;SHT30;63319;46.046;17.802;2023-03-14T06:32:10;21.60;40.45
74792;SHT30;63319;46.046;17.802;2023-03-14T06:35:13;21.63;40.76
74792;SHT30;63319;46.046;17.802;2023-03-14T06:38:23;21.67;40.57
74792;SHT30;63319;46.046;17.802;2023-03-14T06:41:30;21.74;40.69
74792;SHT30;63319;46.046;17.802;2023-03-14T06:44:35;21.83;40.95
74792;SHT30;63319;46.046;17.802;2023-03-14T06:47:39;21.85;41.25
74792;SHT30;63319;46.046;17.802;2023-03-14T06:50:43;21.85;41.27
74792;SHT30;63319;46.046;17.802;2023-03-14T06:53:46;21.91;41.24
74792;SHT30;63319;46.046;17.802;2023-03-14T06:56:51;21.94;41.02
74792;SHT30;63319;46.046;17.802;2023-03-14T06:59:53;21.98;41.33
74792;SHT30;63319;46.046;17.802;2023-03-14T07:02:57;21.97;40.73
74792;SHT30;63319;46.046;17.802;2023-03-14T07:06:04;22.00;40.92
74792;SHT30;63319;46.046;17.802;2023-03-14T07:09:08;22.04;40.66
74792;SHT30;63319;46.046;17.802;2023-03-14T07:12:16;22.06;40.40
74792;SHT30;63319;46.046;17.802;2023-03-14T07:15:24;22.11;40.16
74792;SHT30;63319;46.046;17.802;2023-03-14T07:18:53;22.18;40.50
74792;SHT30;63319;46.046;17.802;2023-03-14T07:22:01;22.19;40.28
74792;SHT30;63319;46.046;17.802;2023-03-14T07:25:24;22.33;40.41
74792;SHT30;63319;46.046;17.802;2023-03-14T07:28:33;22.46;40.43
74792;SHT30;63319;46.046;17.802;2023-03-14T07:31:42;22.60;40.30
74792;SHT30;63319;46.046;17.802;2023-03-14T07:34:46;22.67;40.09
74792;SHT30;63319;46.046;17.802;2023-03-14T07:37:49;22.76;40.10
74792;SHT30;63319;46.046;17.802;2023-03-14T07:41:02;23.24;39.17
74792;SHT30;63319;46.046;17.802;2023-03-14T07:44:11;23.66;37.53
74792;SHT30;63319;46.046;17.802;2023-03-14T07:47:14;23.99;36.55
74792;SHT30;63319;46.046;17.802;2023-03-14T07:50:39;24.30;36.12
74792;SHT30;63319;46.046;17.802;2023-03-14T07:53:45;24.64;35.35
74792;SHT30;63319;46.046;17.802;2023-03-14T07:56:49;24.79;34.84
74792;SHT30;63319;46.046;17.802;2023-03-14T07:59:51;25.09;34.15
74792;SHT30;63319;46.046;17.802;2023-03-14T08:02:57;25.37;33.23
74792;SHT30;63319;46.046;17.802;2023-03-14T08:06:03;25.29;33.52
74792;SHT30;63319;46.046;17.802;2023-03-14T08:09:14;25.24;33.50
74792;SHT30;63319;46.046;17.802;2023-03-14T08:12:18;24.99;33.23
74792;SHT30;63319;46.046;17.802;2023-03-14T08:15:21;25.06;33.60
74792;SHT30;63319;46.046;17.802;2023-03-14T08:18:25;25.20;33.04
74792;SHT30;63319;46.046;17.802;2023-03-14T08:21:28;25.50;32.04
74792;SHT30;63319;46.046;17.802;2023-03-14T08:24:33;25.60;32.02
74792;SHT30;63319;46.046;17.802;2023-03-14T08:27:36;25.94;32.16
74792;SHT30;63319;46.046;17.802;2023-03-14T08:30:43;26.11;32.05
74792;SHT30;63319;46.046;17.802;2023-03-14T08:33:49;26.40;31.11
74792;SHT30;63319;46.046;17.802;2023-03-14T08:36:54;26.65;30.96
74792;SHT30;63319;46.046;17.802;2023-03-14T08:39:59;26.95;30.56
74792;SHT30;63319;46.046;17.802;2023-03-14T08:43:11;27.12;30.31
74792;SHT30;63319;46.046;17.802;2023-03-14T08:46:14;27.38;29.42
74792;SHT30;63319;46.046;17.802;2023-03-14T08:49:18;27.37;29.61
74792;SHT30;63319;46.046;17.802;2023-03-14T08:52:22;27.49;29.05
74792;SHT30;63319;46.046;17.802;2023-03-14T08:55:29;27.56;28.87
74792;SHT30;63319;46.046;17.802;2023-03-14T08:58:33;27.77;28.52
74792;SHT30;63319;46.046;17.802;2023-03-14T09:01:41;27.65;28.75
74792;SHT30;63319;46.046;17.802;2023-03-14T09:04:46;27.73;28.66
74792;SHT30;63319;46.046;17.802;2023-03-14T09:07:49;27.87;28.34
74792;SHT30;63319;46.046;17.802;2023-03-14T09:10:53;28.03;28.14
74792;SHT30;63319;46.046;17.802;2023-03-14T09:13:55;28.18;27.68
74792;SHT30;63319;46.046;17.802;2023-03-14T09:16:59;28.24;27.59
74792;SHT30;63319;46.046;17.802;2023-03-14T09:20:03;28.22;27.51
74792;SHT30;63319;46.046;17.802;2023-03-14T09:23:09;28.40;27.66
74792;SHT30;63319;46.046;17.802;2023-03-14T09:26:12;28.22;27.82
74792;SHT30;63319;46.046;17.802;2023-03-14T09:29:22;28.25;27.70
74792;SHT30;63319;46.046;17.802;2023-03-14T09:32:31;28.08;28.29
74792;SHT30;63319;46.046;17.802;2023-03-14T09:35:35;28.13;28.28
74792;SHT30;63319;46.046;17.802;2023-03-14T09:38:39;28.31;28.42
74792;SHT30;63319;46.046;17.802;2023-03-14T09:41:49;28.17;28.69
74792;SHT30;63319;46.046;17.802;2023-03-14T09:45:03;28.40;28.31
74792;SHT30;63319;46.046;17.802;2023-03-14T09:48:31;28.43;28.32
74792;SHT30;63319;46.046;17.802;2023-03-14T09:51:36;28.24;28.47
74792;SHT30;63319;46.046;17.802;2023-03-14T09:55:02;28.40;28.46
74792;SHT30;63319;46.046;17.802;2023-03-14T09:58:41;28.56;28.37
74792;SHT30;63319;46.046;17.802;2023-03-14T10:01:45;28.61;28.42
74792;SHT30;63319;46.046;17.802;2023-03-14T10:04:51;28.65;28.57
74792;SHT30;63319;46.046;17.802;2023-03-14T10:07:57;28.69;28.56
74792;SHT30;63319;46.046;17.802;2023-03-14T10:11:00;28.69;28.67
74792;SHT30;63319;46.046;17.802;2023-03-14T10:14:10;28.64;28.68
74792;SHT30;63319;46.046;17.802;2023-03-14T10:17:16;28.69;28.73
74792;SHT30;63319;46.046;17.802;2023-03-14T10:20:34;28.79;28.61
74792;SHT30;63319;46.046;17.802;2023-03-14T10:23:37;28.80;28.69
74792;SHT30;63319;46.046;17.802;2023-03-14T10:26:40;28.79;28.68
74792;SHT30;63319;46.046;17.802;2023-03-14T10:30:02;28.98;28.48
74792;SHT30;63319;46.046;17.802;2023-03-14T10:33:11;28.86;28.64
74792;SHT30;63319;46.046;17.802;2023-03-14T10:36:24;28.82;27.63
74792;SHT30;63319;46.046;17.802;2023-03-14T10:39:56;28.52;26.38
74792;SHT30;63319;46.046;17.802;2023-03-14T10:43:04;28.64;25.89
74792;SHT30;63319;46.046;17.802;2023-03-14T10:46:15;28.68;25.79
74792;SHT30;63319;46.046;17.802;2023-03-14T10:49:38;28.68;25.17
74792;SHT30;63319;46.046;17.802;2023-03-14T10:52:47;28.98;25.44
74792;SHT30;63319;46.046;17.802;2023-03-14T10:56:06;29.00;26.12
74792;SHT30;63319;46.046;17.802;2023-03-14T10:59:14;29.13;25.90
74792;SHT30;63319;46.046;17.802;2023-03-14T11:15:27;29.24;26.71
74792;SHT30;63319;46.046;17.802;2023-03-14T11:25:32;29.22;27.29
74792;SHT30;63319;46.046;17.802;2023-03-14T11:28:39;29.24;27.20
74792;SHT30;63319;46.046;17.802;2023-03-14T11:31:44;29.24;27.54
74792;SHT30;63319;46.046;17.802;2023-03-14T11:34:51;29.12;27.24
74792;SHT30;63319;46.046;17.802;2023-03-14T11:41:30;29.02;26.36
74792;SHT30;63319;46.046;17.802;2023-03-14T11:44:39;28.93;25.88
74792;SHT30;63319;46.046;17.802;2023-03-14T11:47:42;28.85;25.57
74792;SHT30;63319;46.046;17.802;2023-03-14T11:50:51;28.93;25.23
74792;SHT30;63319;46.046;17.802;2023-03-14T11:54:23;28.92;25.25
74792;SHT30;63319;46.046;17.802;2023-03-14T11:57:41;28.91;25.52
74792;SHT30;63319;46.046;17.802;2023-03-14T12:00:46;28.93;25.80
74792;SHT30;63319;46.046;17.802;2023-03-14T12:04:13;29.12;25.52
74792;SHT30;63319;46.046;17.802;2023-03-14T12:10:59;29.13;25.90
74792;SHT30;63319;46.046;17.802;2023-03-14T12:14:03;29.02;26.16
74792;SHT30;63319;46.046;17.802;2023-03-14T12:17:21;29.12;26.29
74792;SHT30;63319;46.046;17.802;2023-03-14T12:20:26;29.14;26.28
74792;SHT30;63319;46.046;17.802;2023-03-14T12:23:48;29.13;26.40
74792;SHT30;63319;46.046;17.802;2023-03-14T12:26:57;29.22;26.50
74792;SHT30;63319;46.046;17.802;2023-03-14T12:30:01;29.19;26.60
74792;SHT30;63319;46.046;17.802;2023-03-14T12:36:20;28.89;27.34
74792;SHT30;63319;46.046;17.802;2023-03-14T12:42:56;28.74;27.58
74792;SHT30;63319;46.046;17.802;2023-03-14T12:49:20;28.24;28.10
74792;SHT30;63319;46.046;17.802;2023-03-14T12:52:36;27.90;28.61
74792;SHT30;63319;46.046;17.802;2023-03-14T12:56:06;27.74;28.71
74792;SHT30;63319;46.046;17.802;2023-03-14T12:59:50;27.93;29.22
74792;SHT30;63319;46.046;17.802;2023-03-14T13:03:11;27.89;28.28
74792;SHT30;63319;46.046;17.802;2023-03-14T13:06:46;28.00;29.41
74792;SHT30;63319;46.046;17.802;2023-03-14T13:13:01;27.77;31.62
74792;SHT30;63319;46.046;17.802;2023-03-14T13:16:05;27.76;31.57
74792;SHT30;63319;46.046;17.802;2023-03-14T13:19:20;27.62;32.44
74792;SHT30;63319;46.046;17.802;2023-03-14T13:22:27;27.50;32.49
74792;SHT30;63319;46.046;17.802;2023-03-14T13:25:34;27.42;32.57
74792;SHT30;63319;46.046;17.802;2023-03-14T13:28:38;27.28;32.89
74792;SHT30;63319;46.046;17.802;2023-03-14T13:31:48;27.22;32.93
74792;SHT30;63319;46.046;17.802;2023-03-14T13:34:51;27.25;32.85
74792;SHT30;63319;46.046;17.802;2023-03-14T13:37:59;27.38;32.71
74792;SHT30;63319;46.046;17.802;2023-03-14T13:41:13;27.37;32.80
74792;SHT30;63319;46.046;17.802;2023-03-14T13:44:40;27.28;32.92
74792;SHT30;63319;46.046;17.802;2023-03-14T13:47:43;27.28;32.78
74792;SHT30;63319;46.046;17.802;2023-03-14T13:50:58;27.18;32.98
74792;SHT30;63319;46.046;17.802;2023-03-14T13:54:01;27.05;33.38
74792;SHT30;63319;46.046;17.802;2023-03-14T13:57:05;27.00;33.46
74792;SHT30;63319;46.046;17.802;2023-03-14T14:00:20;26.91;33.36
74792;SHT30;63319;46.046;17.802;2023-03-14T14:03:26;26.90;33.38
74792;SHT30;63319;46.046;17.802;2023-03-14T14:06:35;26.81;33.59
74792;SHT30;63319;46.046;17.802;2023-03-14T14:09:58;26.70;33.78
74792;SHT30;63319;46.046;17.802;2023-03-14T14:13:06;26.69;33.99
74792;SHT30;63319;46.046;17.802;2023-03-14T14:16:11;26.61;34.03
74792;SHT30;63319;46.046;17.802;2023-03-14T14:19:15;26.57;33.99
74792;SHT30;63319;46.046;17.802;2023-03-14T14:22:20;26.53;34.21
74792;SHT30;63319;46.046;17.802;2023-03-14T14:25:25;26.46;34.20
74792;SHT30;63319;46.046;17.802;2023-03-14T14:28:33;26.42;34.29
74792;SHT30;63319;46.046;17.802;2023-03-14T14:31:37;26.37;34.17
74792;SHT30;63319;46.046;17.802;2023-03-14T14:34:56;26.31;34.17
74792;SHT30;63319;46.046;17.802;2023-03-14T14:37:59;26.26;34.34
74792;SHT30;63319;46.046;17.802;2023-03-14T14:41:02;26.22;34.37
74792;SHT30;63319;46.046;17.802;2023-03-14T14:44:06;26.15;34.35
74792;SHT30;63319;46.046;17.802;2023-03-14T14:47:13;26.11;34.47
74792;SHT30;63319;46.046;17.802;2023-03-14T14:53:35;25.99;34.56
74792;SHT30;63319;46.046;17.802;2023-03-14T14:56:39;25.94;34.76
74792;SHT30;63319;46.046;17.802;2023-03-14T14:59:42;25.91;34.86
74792;SHT30;63319;46.046;17.802;2023-03-14T15:02:48;25.89;34.99
74792;SHT30;63319;46.046;17.802;2023-03-14T15:05:54;25.88;34.99
74792;SHT30;63319;46.046;17.802;2023-03-14T15:08:59;25.87;35.03
74792;SHT30;63319;46.046;17.802;2023-03-14T15:12:02;25.88;34.80
74792;SHT30;63319;46.046;17.802;2023-03-14T15:15:06;25.84;34.86
74792;SHT30;63319;46.046;17.802;2023-03-14T15:18:17;25.84;34.89
74792;SHT30;63319;46.046;17.802;2023-03-14T15:21:21;25.82;34.94
74792;SHT30;63319;46.046;17.802;2023-03-14T15:24:23;25.77;34.97
74792;SHT30;63319;46.046;17.802;2023-03-14T15:27:28;25.73;35.02
74792;SHT30;63319;46.046;17.802;2023-03-14T15:30:33;25.68;35.18
74792;SHT30;63319;46.046;17.802;2023-03-14T15:33:36;25.61;35.13
74792;SHT30;63319;46.046;17.802;2023-03-14T15:36:39;25.58;35.23
74792;SHT30;63319;46.046;17.802;2023-03-14T15:39:43;25.57;35.24
74792;SHT30;63319;46.046;17.802;2023-03-14T15:42:45;25.54;35.34
74792;SHT30;63319;46.046;17.802;2023-03-14T15:45:48;25.43;35.46
74792;SHT30;63319;46.046;17.802;2023-03-14T15:48:53;25.43;35.47
74792;SHT30;63319;46.046;17.802;2023-03-14T15:51:55;25.34;35.61
74792;SHT30;63319;46.046;17.802;2023-03-14T15:54:59;25.31;35.62
74792;SHT30;63319;46.046;17.802;2023-03-14T15:58:03;25.30;35.66
74792;SHT30;63319;46.046;17.802;2023-03-14T16:01:08;25.26;35.70
74792;SHT30;63319;46.046;17.802;2023-03-14T16:04:14;25.23;35.76
74792;SHT30;63319;46.046;17.802;2023-03-14T16:07:23;25.20;35.81
74792;SHT30;63319;46.046;17.802;2023-03-14T16:10:27;25.18;35.82
74792;SHT30;63319;46.046;17.802;2023-03-14T16:13:31;25.18;35.84
74792;SHT30;63319;46.046;17.802;2023-03-14T16:16:34;25.15;35.94
74792;SHT30;63319;46.046;17.802;2023-03-14T16:19:37;25.10;35.98
74792;SHT30;63319;46.046;17.802;2023-03-14T16:22:40;25.10;35.96
74792;SHT30;63319;46.046;17.802;2023-03-14T16:25:44;25.08;36.05
74792;SHT30;63319;46.046;17.802;2023-03-14T16:28:47;25.06;36.10
74792;SHT30;63319;46.046;17.802;2023-03-14T16:31:50;25.03;36.09
74792;SHT30;63319;46.046;17.802;2023-03-14T16:34:54;25.00;36.16
74792;SHT30;63319;46.046;17.802;2023-03-14T16:37:59;24.99;36.18
74792;SHT30;63319;46.046;17.802;2023-03-14T16:44:14;24.93;36.26
74792;SHT30;63319;46.046;17.802;2023-03-14T16:47:17;24.91;36.37
74792;SHT30;63319;46.046;17.802;2023-03-14T16:50:22;24.88;36.36
74792;SHT30;63319;46.046;17.802;2023-03-14T16:53:25;24.86;36.45
74792;SHT30;63319;46.046;17.802;2023-03-14T16:56:30;24.83;36.47
74792;SHT30;63319;46.046;17.802;2023-03-14T16:59:34;24.81;36.56
74792;SHT30;63319;46.046;17.802;2023-03-14T17:02:37;24.76;36.53
74792;SHT30;63319;46.046;17.802;2023-03-14T17:05:45;24.76;36.61
74792;SHT30;63319;46.046;17.802;2023-03-14T17:08:50;24.72;36.68
74792;SHT30;63319;46.046;17.802;2023-03-14T17:11:54;24.68;36.70
74792;SHT30;63319;46.046;17.802;2023-03-14T17:14:59;24.65;36.79
74792;SHT30;63319;46.046;17.802;2023-03-14T17:18:03;24.64;36.83
74792;SHT30;63319;46.046;17.802;2023-03-14T17:21:07;24.60;36.90
74792;SHT30;63319;46.046;17.802;2023-03-14T17:24:14;24.58;36.90
74792;SHT30;63319;46.046;17.802;2023-03-14T17:27:17;24.57;36.97
74792;SHT30;63319;46.046;17.802;2023-03-14T17:30:22;24.52;36.98
74792;SHT30;63319;46.046;17.802;2023-03-14T17:33:27;24.51;37.03
74792;SHT30;63319;46.046;17.802;2023-03-14T17:36:30;24.48;37.11
74792;SHT30;63319;46.046;17.802;2023-03-14T17:39:36;24.47;37.09
74792;SHT30;63319;46.046;17.802;2023-03-14T17:42:42;24.43;37.17
74792;SHT30;63319;46.046;17.802;2023-03-14T17:45:46;24.40;37.17
74792;SHT30;63319;46.046;17.802;2023-03-14T17:48:49;24.40;37.25
74792;SHT30;63319;46.046;17.802;2023-03-14T17:51:54;24.38;37.25
74792;SHT30;63319;46.046;17.802;2023-03-14T17:54:57;24.37;37.32
74792;SHT30;63319;46.046;17.802;2023-03-14T17:58:02;24.34;37.35
74792;SHT30;63319;46.046;17.802;2023-03-14T18:01:14;24.34;37.39
74792;SHT30;63319;46.046;17.802;2023-03-14T18:04:19;24.28;37.39
74792;SHT30;63319;46.046;17.802;2023-03-14T18:07:23;24.28;37.45
74792;SHT30;63319;46.046;17.802;2023-03-14T18:10:31;24.27;37.49
74792;SHT30;63319;46.046;17.802;2023-03-14T18:13:39;24.23;37.54
74792;SHT30;63319;46.046;17.802;2023-03-14T18:16:43;24.23;37.58
74792;SHT30;63319;46.046;17.802;2023-03-14T18:19:50;24.20;37.61
74792;SHT30;63319;46.046;17.802;2023-03-14T18:22:55;24.21;37.64
74792;SHT30;63319;46.046;17.802;2023-03-14T18:26:00;24.17;37.67
74792;SHT30;63319;46.046;17.802;2023-03-14T18:29:04;24.18;37.64
74792;SHT30;63319;46.046;17.802;2023-03-14T18:32:09;24.16;37.69
74792;SHT30;63319;46.046;17.802;2023-03-14T18:35:12;24.13;37.73
74792;SHT30;63319;46.046;17.802;2023-03-14T18:38:17;24.13;37.75
74792;SHT30;63319;46.046;17.802;2023-03-14T18:41:23;24.09;37.79
74792;SHT30;63319;46.046;17.802;2023-03-14T18:44:28;24.09;37.85
74792;SHT30;63319;46.046;17.802;2023-03-14T18:47:34;24.10;37.87
74792;SHT30;63319;46.046;17.802;2023-03-14T18:50:42;24.06;37.86
74792;SHT30;63319;46.046;17.802;2023-03-14T18:54:04;24.04;37.93
74792;SHT30;63319;46.046;17.802;2023-03-14T18:57:12;24.03;37.96
74792;SHT30;63319;46.046;17.802;2023-03-14T19:00:18;24.03;37.96
74792;SHT30;63319;46.046;17.802;2023-03-14T19:03:24;24.00;37.96
74792;SHT30;63319;46.046;17.802;2023-03-14T19:06:31;23.97;38.03
74792;SHT30;63319;46.046;17.802;2023-03-14T19:09:35;23.97;38.06
74792;SHT30;63319;46.046;17.802;2023-03-14T19:12:39;23.94;38.12
74792;SHT30;63319;46.046;17.802;2023-03-14T19:15:44;23.96;38.12
74792;SHT30;63319;46.046;17.802;2023-03-14T19:18:51;23.94;38.14
74792;SHT30;63319;46.046;17.802;2023-03-14T19:21:55;23.94;38.19
74792;SHT30;63319;46.046;17.802;2023-03-14T19:25:00;23.94;38.20
74792;SHT30;63319;46.046;17.802;2023-03-14T19:28:06;23.92;38.22
74792;SHT30;63319;46.046;17.802;2023-03-14T19:31:12;23.90;38.24
74792;SHT30;63319;46.046;17.802;2023-03-14T19:34:16;23.92;38.24
74792;SHT30;63319;46.046;17.802;2023-03-14T19:37:25;23.89;38.29
74792;SHT30;63319;46.046;17.802;2023-03-14T19:40:30;23.89;38.27
74792;SHT30;63319;46.046;17.802;2023-03-14T19:43:37;23.87;38.29
74792;SHT30;63319;46.046;17.802;2023-03-14T19:46:43;23.85;38.38
74792;SHT30;63319;46.046;17.802;2023-03-14T19:49:46;23.83;38.38
74792;SHT30;63319;46.046;17.802;2023-03-14T19:52:53;23.82;38.41
74792;SHT30;63319;46.046;17.802;2023-03-14T19:55:58;23.82;38.44
74792;SHT30;63319;46.046;17.802;2023-03-14T19:59:04;23.80;38.44
74792;SHT30;63319;46.046;17.802;2023-03-14T20:02:14;23.79;38.46
74792;SHT30;63319;46.046;17.802;2023-03-14T20:05:20;23.79;38.56
74792;SHT30;63319;46.046;17.802;2023-03-14T20:08:24;23.77;38.55
74792;SHT30;63319;46.046;17.802;2023-03-14T20:11:29;23.76;38.58
74792;SHT30;63319;46.046;17.802;2023-03-14T20:14:32;23.77;38.58
74792;SHT30;63319;46.046;17.802;2023-03-14T20:17:38;23.75;38.64